sensor_id;sensor_type;location;lat;lon;timestamp;temperature;humidity
62259;DHT22;48241;48.824;10.102;2022-08-05T00:01:18;25.90;50.20
62259;DHT22;48241;48.824;10.102;2022-08-05T00:03:45;25.80;50.00
62259;DHT22;48241;48.824;10.102;2022-08-05T00:06:11;25.70;50.70
62259;DHT22;48241;48.824;10.102;2022-08-05T00:08:37;25.70;50.20
62259;DHT22;48241;48.824;10.102;2022-08-05T00:11:06;25.80;50.10
62259;DHT22;48241;48.824;10.102;2022-08-05T00:13:34;25.80;49.50
62259;DHT22;48241;48.824;10.102;2022-08-05T00:15:59;25.90;48.90
62259;DHT22;48241;48.824;10.102;2022-08-05T00:18:25;26.00;49.00
62259;DHT22;48241;48.824;10.102;2022-08-05T00:20:51;26.00;48.90
62259;DHT22;48241;48.824;10.102;2022-08-05T00:23:17;26.00;48.80
62259;DHT22;48241;48.824;10.102;2022-08-05T00:25:42;26.00;48.70
62259;DHT22;48241;48.824;10.102;2022-08-05T00:28:08;26.00;48.90
62259;DHT22;48241;48.824;10.102;2022-08-05T00:30:33;26.00;49.30
62259;DHT22;48241;48.824;10.102;2022-08-05T00:32:59;26.10;48.90
62259;DHT22;48241;48.824;10.102;2022-08-05T00:35:25;26.10;46.60
62259;DHT22;48241;48.824;10.102;2022-08-05T00:37:50;26.20;48.10
62259;DHT22;48241;48.824;10.102;2022-08-05T00:40:17;26.30;47.80
62259;DHT22;48241;48.824;10.102;2022-08-05T00:42:42;26.30;46.90
62259;DHT22;48241;48.824;10.102;2022-08-05T00:47:41;26.50;46.80
62259;DHT22;48241;48.824;10.102;2022-08-05T00:50:07;26.50;46.90
62259;DHT22;48241;48.824;10.102;2022-08-05T00:52:33;26.40;47.50
62259;DHT22;48241;48.824;10.102;2022-08-05T00:54:58;26.50;46.10
62259;DHT22;48241;48.824;10.102;2022-08-05T00:57:24;26.40;47.10
62259;DHT22;48241;48.824;10.102;2022-08-05T00:59:50;26.40;46.70
62259;DHT22;48241;48.824;10.102;2022-08-05T01:02:15;26.30;47.10
62259;DHT22;48241;48.824;10.102;2022-08-05T01:04:41;26.40;47.00
62259;DHT22;48241;48.824;10.102;2022-08-05T01:07:06;26.40;46.40
62259;DHT22;48241;48.824;10.102;2022-08-05T01:09:32;26.40;46.60
62259;DHT22;48241;48.824;10.102;2022-08-05T01:12:02;26.30;46.90
62259;DHT22;48241;48.824;10.102;2022-08-05T01:14:40;26.20;47.20
62259;DHT22;48241;48.824;10.102;2022-08-05T01:17:46;26.20;47.60
62259;DHT22;48241;48.824;10.102;2022-08-05T01:26:03;25.90;49.30
62259;DHT22;48241;48.824;10.102;2022-08-05T01:28:42;25.70;48.00
62259;DHT22;48241;48.824;10.102;2022-08-05T01:34:04;25.50;48.10
62259;DHT22;48241;48.824;10.102;2022-08-05T01:36:37;25.50;48.90
62259;DHT22;48241;48.824;10.102;2022-08-05T01:39:04;25.40;48.90
62259;DHT22;48241;48.824;10.102;2022-08-05T01:41:33;25.30;49.20
62259;DHT22;48241;48.824;10.102;2022-08-05T01:44:00;25.40;47.80
62259;DHT22;48241;48.824;10.102;2022-08-05T01:46:27;25.40;48.70
62259;DHT22;48241;48.824;10.102;2022-08-05T01:48:53;25.30;48.50
62259;DHT22;48241;48.824;10.102;2022-08-05T01:51:20;25.10;49.00
62259;DHT22;48241;48.824;10.102;2022-08-05T01:53:50;25.10;48.70
62259;DHT22;48241;48.824;10.102;2022-08-05T01:56:17;25.10;49.10
62259;DHT22;48241;48.824;10.102;2022-08-05T01:58:44;24.90;50.90
62259;DHT22;48241;48.824;10.102;2022-08-05T02:01:11;25.10;51.00
62259;DHT22;48241;48.824;10.102;2022-08-05T02:03:42;25.10;51.00
62259;DHT22;48241;48.824;10.102;2022-08-05T02:06:09;25.10;50.10
62259;DHT22;48241;48.824;10.102;2022-08-05T02:08:36;25.10;48.00
62259;DHT22;48241;48.824;10.102;2022-08-05T02:11:07;25.10;48.90
62259;DHT22;48241;48.824;10.102;2022-08-05T02:16:22;25.20;48.80
62259;DHT22;48241;48.824;10.102;2022-08-05T02:18:53;25.10;50.40
62259;DHT22;48241;48.824;10.102;2022-08-05T02:21:40;25.00;50.60
62259;DHT22;48241;48.824;10.102;2022-08-05T02:24:10;24.90;50.10
62259;DHT22;48241;48.824;10.102;2022-08-05T02:26:45;24.90;50.90
62259;DHT22;48241;48.824;10.102;2022-08-05T02:29:12;24.90;50.30
62259;DHT22;48241;48.824;10.102;2022-08-05T02:31:42;24.90;49.20
62259;DHT22;48241;48.824;10.102;2022-08-05T02:34:12;25.00;50.70
62259;DHT22;48241;48.824;10.102;2022-08-05T02:36:44;24.90;49.10
62259;DHT22;48241;48.824;10.102;2022-08-05T02:39:15;24.80;49.20
62259;DHT22;48241;48.824;10.102;2022-08-05T02:41:42;24.90;48.70
62259;DHT22;48241;48.824;10.102;2022-08-05T02:44:09;25.00;48.80
62259;DHT22;48241;48.824;10.102;2022-08-05T02:46:38;24.90;51.20
62259;DHT22;48241;48.824;10.102;2022-08-05T02:49:05;24.60;51.70
62259;DHT22;48241;48.824;10.102;2022-08-05T02:51:32;24.70;53.60
62259;DHT22;48241;48.824;10.102;2022-08-05T02:53:59;24.80;52.50
62259;DHT22;48241;48.824;10.102;2022-08-05T02:56:25;24.80;52.30
62259;DHT22;48241;48.824;10.102;2022-08-05T02:58:52;24.80;52.90
62259;DHT22;48241;48.824;10.102;2022-08-05T03:01:21;24.70;52.70
62259;DHT22;48241;48.824;10.102;2022-08-05T03:03:50;24.50;53.10
62259;DHT22;48241;48.824;10.102;2022-08-05T03:06:19;24.50;52.40
62259;DHT22;48241;48.824;10.102;2022-08-05T03:08:45;24.50;53.20
62259;DHT22;48241;48.824;10.102;2022-08-05T03:11:23;24.30;53.60
62259;DHT22;48241;48.824;10.102;2022-08-05T03:13:49;24.30;54.40
62259;DHT22;48241;48.824;10.102;2022-08-05T03:16:15;24.20;54.50
62259;DHT22;48241;48.824;10.102;2022-08-05T03:18:41;24.30;55.30
62259;DHT22;48241;48.824;10.102;2022-08-05T03:21:07;24.30;54.80
62259;DHT22;48241;48.824;10.102;2022-08-05T03:23:33;24.10;55.30
62259;DHT22;48241;48.824;10.102;2022-08-05T03:26:00;24.20;55.50
62259;DHT22;48241;48.824;10.102;2022-08-05T03:28:26;24.20;54.60
62259;DHT22;48241;48.824;10.102;2022-08-05T03:30:53;24.40;54.40
62259;DHT22;48241;48.824;10.102;2022-08-05T03:33:20;24.40;54.40
62259;DHT22;48241;48.824;10.102;2022-08-05T03:35:46;24.50;53.90
62259;DHT22;48241;48.824;10.102;2022-08-05T03:38:13;24.60;53.50
62259;DHT22;48241;48.824;10.102;2022-08-05T03:40:40;24.70;54.20
62259;DHT22;48241;48.824;10.102;2022-08-05T03:43:05;24.60;54.40
62259;DHT22;48241;48.824;10.102;2022-08-05T03:45:31;24.50;54.00
62259;DHT22;48241;48.824;10.102;2022-08-05T03:47:56;24.60;54.20
62259;DHT22;48241;48.824;10.102;2022-08-05T03:50:22;24.50;54.90
62259;DHT22;48241;48.824;10.102;2022-08-05T03:52:54;24.30;55.60
62259;DHT22;48241;48.824;10.102;2022-08-05T03:55:34;24.30;55.50
62259;DHT22;48241;48.824;10.102;2022-08-05T03:58:02;24.50;54.50
62259;DHT22;48241;48.824;10.102;2022-08-05T04:00:29;24.40;53.70
62259;DHT22;48241;48.824;10.102;2022-08-05T04:02:58;24.50;54.00
62259;DHT22;48241;48.824;10.102;2022-08-05T04:05:31;24.50;54.10
62259;DHT22;48241;48.824;10.102;2022-08-05T04:07:58;24.60;53.60
62259;DHT22;48241;48.824;10.102;2022-08-05T04:10:26;24.70;53.40
62259;DHT22;48241;48.824;10.102;2022-08-05T04:12:52;24.50;53.80
62259;DHT22;48241;48.824;10.102;2022-08-05T04:15:18;24.70;53.70
62259;DHT22;48241;48.824;10.102;2022-08-05T04:17:44;24.60;53.90
62259;DHT22;48241;48.824;10.102;2022-08-05T04:20:17;24.50;54.40
62259;DHT22;48241;48.824;10.102;2022-08-05T04:22:44;24.10;55.60
62259;DHT22;48241;48.824;10.102;2022-08-05T04:25:09;24.30;55.30
62259;DHT22;48241;48.824;10.102;2022-08-05T04:27:35;24.50;55.10
62259;DHT22;48241;48.824;10.102;2022-08-05T04:30:01;24.40;55.10
62259;DHT22;48241;48.824;10.102;2022-08-05T04:32:26;24.50;55.10
62259;DHT22;48241;48.824;10.102;2022-08-05T04:34:52;24.70;55.20
62259;DHT22;48241;48.824;10.102;2022-08-05T04:37:17;24.70;55.10
62259;DHT22;48241;48.824;10.102;2022-08-05T04:39:43;24.50;55.00
62259;DHT22;48241;48.824;10.102;2022-08-05T04:42:08;24.70;55.00
62259;DHT22;48241;48.824;10.102;2022-08-05T04:44:34;24.70;54.90
62259;DHT22;48241;48.824;10.102;2022-08-05T04:47:00;24.80;54.50
62259;DHT22;48241;48.824;10.102;2022-08-05T04:49:26;24.70;54.40
62259;DHT22;48241;48.824;10.102;2022-08-05T04:51:52;24.90;54.00
62259;DHT22;48241;48.824;10.102;2022-08-05T04:54:18;25.10;52.60
62259;DHT22;48241;48.824;10.102;2022-08-05T04:56:44;25.20;52.40
62259;DHT22;48241;48.824;10.102;2022-08-05T04:59:10;25.30;52.80
62259;DHT22;48241;48.824;10.102;2022-08-05T05:01:36;25.40;51.90
62259;DHT22;48241;48.824;10.102;2022-08-05T05:04:02;25.80;51.70
62259;DHT22;48241;48.824;10.102;2022-08-05T05:06:27;26.20;50.20
62259;DHT22;48241;48.824;10.102;2022-08-05T05:08:53;26.50;50.00
62259;DHT22;48241;48.824;10.102;2022-08-05T05:11:18;26.60;50.10
62259;DHT22;48241;48.824;10.102;2022-08-05T05:13:44;26.60;50.40
62259;DHT22;48241;48.824;10.102;2022-08-05T05:16:10;26.50;50.80
62259;DHT22;48241;48.824;10.102;2022-08-05T05:18:35;26.50;50.60
62259;DHT22;48241;48.824;10.102;2022-08-05T05:21:02;26.30;49.50
62259;DHT22;48241;48.824;10.102;2022-08-05T05:23:27;26.20;50.50
62259;DHT22;48241;48.824;10.102;2022-08-05T05:25:53;26.40;50.60
62259;DHT22;48241;48.824;10.102;2022-08-05T05:28:18;26.30;49.90
62259;DHT22;48241;48.824;10.102;2022-08-05T05:30:45;26.30;50.40
62259;DHT22;48241;48.824;10.102;2022-08-05T05:33:11;26.40;50.10
62259;DHT22;48241;48.824;10.102;2022-08-05T05:35:36;26.30;50.60
62259;DHT22;48241;48.824;10.102;2022-08-05T05:38:02;26.30;50.70
62259;DHT22;48241;48.824;10.102;2022-08-05T05:40:30;26.00;51.10
62259;DHT22;48241;48.824;10.102;2022-08-05T05:42:56;25.90;51.50
62259;DHT22;48241;48.824;10.102;2022-08-05T05:45:22;26.00;51.70
62259;DHT22;48241;48.824;10.102;2022-08-05T05:47:48;26.20;51.00
62259;DHT22;48241;48.824;10.102;2022-08-05T05:50:15;26.40;50.80
62259;DHT22;48241;48.824;10.102;2022-08-05T05:52:41;26.80;50.10
62259;DHT22;48241;48.824;10.102;2022-08-05T05:55:10;27.00;49.70
62259;DHT22;48241;48.824;10.102;2022-08-05T05:57:38;27.30;49.50
62259;DHT22;48241;48.824;10.102;2022-08-05T06:00:06;27.40;49.10
62259;DHT22;48241;48.824;10.102;2022-08-05T06:02:32;27.40;48.50
62259;DHT22;48241;48.824;10.102;2022-08-05T06:04:58;27.60;48.10
62259;DHT22;48241;48.824;10.102;2022-08-05T06:07:23;27.50;48.40
62259;DHT22;48241;48.824;10.102;2022-08-05T06:09:49;27.30;48.80
62259;DHT22;48241;48.824;10.102;2022-08-05T06:12:14;27.20;49.00
62259;DHT22;48241;48.824;10.102;2022-08-05T06:14:40;27.00;51.50
62259;DHT22;48241;48.824;10.102;2022-08-05T06:17:09;26.90;53.40
62259;DHT22;48241;48.824;10.102;2022-08-05T06:19:35;26.90;53.60
62259;DHT22;48241;48.824;10.102;2022-08-05T06:22:05;27.10;53.30
62259;DHT22;48241;48.824;10.102;2022-08-05T06:24:31;27.70;52.10
62259;DHT22;48241;48.824;10.102;2022-08-05T06:26:57;28.10;50.60
62259;DHT22;48241;48.824;10.102;2022-08-05T06:29:23;28.00;51.10
62259;DHT22;48241;48.824;10.102;2022-08-05T06:31:49;28.20;50.50
62259;DHT22;48241;48.824;10.102;2022-08-05T06:34:14;28.10;50.40
62259;DHT22;48241;48.824;10.102;2022-08-05T06:36:40;28.00;50.10
62259;DHT22;48241;48.824;10.102;2022-08-05T06:39:05;28.50;49.80
62259;DHT22;48241;48.824;10.102;2022-08-05T06:41:31;28.80;48.40
62259;DHT22;48241;48.824;10.102;2022-08-05T06:43:56;28.80;48.30
62259;DHT22;48241;48.824;10.102;2022-08-05T06:46:22;29.10;47.50
62259;DHT22;48241;48.824;10.102;2022-08-05T06:48:48;29.70;46.40
62259;DHT22;48241;48.824;10.102;2022-08-05T06:51:13;31.60;43.70
62259;DHT22;48241;48.824;10.102;2022-08-05T06:53:39;34.30;40.00
62259;DHT22;48241;48.824;10.102;2022-08-05T06:56:05;36.40;36.20
62259;DHT22;48241;48.824;10.102;2022-08-05T06:58:31;38.10;33.20
62259;DHT22;48241;48.824;10.102;2022-08-05T07:00:58;39.20;31.80
62259;DHT22;48241;48.824;10.102;2022-08-05T07:03:24;40.00;30.20
62259;DHT22;48241;48.824;10.102;2022-08-05T07:05:50;41.00;28.90
62259;DHT22;48241;48.824;10.102;2022-08-05T07:08:15;41.70;27.70
62259;DHT22;48241;48.824;10.102;2022-08-05T07:10:41;42.30;27.60
62259;DHT22;48241;48.824;10.102;2022-08-05T07:13:06;42.20;27.10
62259;DHT22;48241;48.824;10.102;2022-08-05T07:15:50;42.10;27.30
62259;DHT22;48241;48.824;10.102;2022-08-05T07:18:34;41.00;27.80
62259;DHT22;48241;48.824;10.102;2022-08-05T07:21:00;41.20;27.70
62259;DHT22;48241;48.824;10.102;2022-08-05T07:23:26;39.80;28.20
62259;DHT22;48241;48.824;10.102;2022-08-05T07:25:51;38.70;29.30
62259;DHT22;48241;48.824;10.102;2022-08-05T07:28:17;38.50;29.50
62259;DHT22;48241;48.824;10.102;2022-08-05T07:30:42;37.20;30.10
62259;DHT22;48241;48.824;10.102;2022-08-05T07:33:10;37.30;30.50
62259;DHT22;48241;48.824;10.102;2022-08-05T07:35:37;37.10;31.10
62259;DHT22;48241;48.824;10.102;2022-08-05T07:38:03;36.30;31.50
62259;DHT22;48241;48.824;10.102;2022-08-05T07:40:28;35.30;33.10
62259;DHT22;48241;48.824;10.102;2022-08-05T07:42:54;34.70;34.50
62259;DHT22;48241;48.824;10.102;2022-08-05T07:45:19;34.80;34.50
62259;DHT22;48241;48.824;10.102;2022-08-05T07:47:45;36.50;32.50
62259;DHT22;48241;48.824;10.102;2022-08-05T07:50:11;38.30;30.00
62259;DHT22;48241;48.824;10.102;2022-08-05T07:52:38;38.10;29.20
62259;DHT22;48241;48.824;10.102;2022-08-05T07:55:04;38.80;29.70
62259;DHT22;48241;48.824;10.102;2022-08-05T07:57:30;40.10;28.20
62259;DHT22;48241;48.824;10.102;2022-08-05T07:59:55;40.80;27.20
62259;DHT22;48241;48.824;10.102;2022-08-05T08:02:25;41.50;26.80
62259;DHT22;48241;48.824;10.102;2022-08-05T08:04:52;43.10;26.40
62259;DHT22;48241;48.824;10.102;2022-08-05T08:07:18;43.10;26.00
62259;DHT22;48241;48.824;10.102;2022-08-05T08:09:44;42.20;26.30
62259;DHT22;48241;48.824;10.102;2022-08-05T08:12:10;43.50;25.60
62259;DHT22;48241;48.824;10.102;2022-08-05T08:14:40;42.70;25.40
62259;DHT22;48241;48.824;10.102;2022-08-05T08:17:06;41.10;26.80
62259;DHT22;48241;48.824;10.102;2022-08-05T08:19:38;40.20;27.50
62259;DHT22;48241;48.824;10.102;2022-08-05T08:22:06;40.20;27.90
62259;DHT22;48241;48.824;10.102;2022-08-05T08:24:32;40.40;27.40
62259;DHT22;48241;48.824;10.102;2022-08-05T08:26:58;40.60;27.20
62259;DHT22;48241;48.824;10.102;2022-08-05T08:29:23;40.80;26.60
62259;DHT22;48241;48.824;10.102;2022-08-05T08:31:49;41.50;25.90
62259;DHT22;48241;48.824;10.102;2022-08-05T08:34:19;41.50;25.60
62259;DHT22;48241;48.824;10.102;2022-08-05T08:36:45;42.10;25.50
62259;DHT22;48241;48.824;10.102;2022-08-05T08:39:11;43.20;24.70
62259;DHT22;48241;48.824;10.102;2022-08-05T08:41:40;42.70;24.70
62259;DHT22;48241;48.824;10.102;2022-08-05T08:44:10;42.60;25.00
62259;DHT22;48241;48.824;10.102;2022-08-05T08:46:36;43.20;24.50
62259;DHT22;48241;48.824;10.102;2022-08-05T08:49:03;43.50;23.90
62259;DHT22;48241;48.824;10.102;2022-08-05T08:51:32;43.90;23.60
62259;DHT22;48241;48.824;10.102;2022-08-05T08:53:59;44.00;23.30
62259;DHT22;48241;48.824;10.102;2022-08-05T08:56:25;43.60;24.10
62259;DHT22;48241;48.824;10.102;2022-08-05T08:58:51;42.80;23.30
62259;DHT22;48241;48.824;10.102;2022-08-05T09:01:17;42.80;23.50
62259;DHT22;48241;48.824;10.102;2022-08-05T09:03:48;44.00;23.60
62259;DHT22;48241;48.824;10.102;2022-08-05T09:06:14;44.40;22.90
62259;DHT22;48241;48.824;10.102;2022-08-05T09:08:40;44.30;23.40
62259;DHT22;48241;48.824;10.102;2022-08-05T09:11:06;44.00;22.70
62259;DHT22;48241;48.824;10.102;2022-08-05T09:13:33;44.10;23.10
62259;DHT22;48241;48.824;10.102;2022-08-05T09:15:59;44.90;22.50
62259;DHT22;48241;48.824;10.102;2022-08-05T09:18:25;45.00;22.10
62259;DHT22;48241;48.824;10.102;2022-08-05T09:20:51;44.10;22.30
62259;DHT22;48241;48.824;10.102;2022-08-05T09:23:18;43.00;22.90
62259;DHT22;48241;48.824;10.102;2022-08-05T09:25:51;42.40;23.50
62259;DHT22;48241;48.824;10.102;2022-08-05T09:28:22;42.70;23.40
62259;DHT22;48241;48.824;10.102;2022-08-05T09:30:57;43.10;23.40
62259;DHT22;48241;48.824;10.102;2022-08-05T09:33:25;43.30;23.60
62259;DHT22;48241;48.824;10.102;2022-08-05T09:36:00;42.90;23.30
62259;DHT22;48241;48.824;10.102;2022-08-05T09:38:27;42.60;23.00
62259;DHT22;48241;48.824;10.102;2022-08-05T09:40:53;43.50;22.80
62259;DHT22;48241;48.824;10.102;2022-08-05T09:43:35;43.30;22.70
62259;DHT22;48241;48.824;10.102;2022-08-05T09:46:01;42.90;22.70
62259;DHT22;48241;48.824;10.102;2022-08-05T09:48:33;43.10;22.90
62259;DHT22;48241;48.824;10.102;2022-08-05T09:51:04;43.60;22.90
62259;DHT22;48241;48.824;10.102;2022-08-05T09:53:48;43.30;22.50
62259;DHT22;48241;48.824;10.102;2022-08-05T09:56:31;43.10;22.70
62259;DHT22;48241;48.824;10.102;2022-08-05T10:01:31;42.60;22.70
62259;DHT22;48241;48.824;10.102;2022-08-05T10:04:04;42.80;23.40
62259;DHT22;48241;48.824;10.102;2022-08-05T10:06:30;43.40;22.60
62259;DHT22;48241;48.824;10.102;2022-08-05T10:09:13;43.50;22.60
62259;DHT22;48241;48.824;10.102;2022-08-05T10:11:41;43.00;22.50
62259;DHT22;48241;48.824;10.102;2022-08-05T10:14:27;42.80;23.00
62259;DHT22;48241;48.824;10.102;2022-08-05T10:16:54;42.10;24.20
62259;DHT22;48241;48.824;10.102;2022-08-05T10:19:24;41.40;23.30
62259;DHT22;48241;48.824;10.102;2022-08-05T10:21:51;40.40;24.10
62259;DHT22;48241;48.824;10.102;2022-08-05T10:24:17;39.70;24.50
62259;DHT22;48241;48.824;10.102;2022-08-05T10:26:44;39.40;24.60
62259;DHT22;48241;48.824;10.102;2022-08-05T10:29:10;39.20;24.30
62259;DHT22;48241;48.824;10.102;2022-08-05T10:31:36;38.50;25.00
62259;DHT22;48241;48.824;10.102;2022-08-05T10:34:07;37.80;25.60
62259;DHT22;48241;48.824;10.102;2022-08-05T10:36:39;37.40;25.30
62259;DHT22;48241;48.824;10.102;2022-08-05T10:39:11;37.20;26.40
62259;DHT22;48241;48.824;10.102;2022-08-05T10:42:17;36.90;26.30
62259;DHT22;48241;48.824;10.102;2022-08-05T10:44:45;36.90;26.10
62259;DHT22;48241;48.824;10.102;2022-08-05T10:47:13;36.40;26.70
62259;DHT22;48241;48.824;10.102;2022-08-05T10:50:06;36.40;27.40
62259;DHT22;48241;48.824;10.102;2022-08-05T10:52:54;36.60;27.10
62259;DHT22;48241;48.824;10.102;2022-08-05T10:55:25;36.60;27.20
62259;DHT22;48241;48.824;10.102;2022-08-05T11:00:33;36.40;27.70
62259;DHT22;48241;48.824;10.102;2022-08-05T11:05:34;35.90;27.60
62259;DHT22;48241;48.824;10.102;2022-08-05T11:08:02;35.50;27.60
62259;DHT22;48241;48.824;10.102;2022-08-05T11:10:29;35.50;28.00
62259;DHT22;48241;48.824;10.102;2022-08-05T11:12:56;35.60;27.60
62259;DHT22;48241;48.824;10.102;2022-08-05T11:15:27;35.50;26.90
62259;DHT22;48241;48.824;10.102;2022-08-05T11:18:07;34.90;27.70
62259;DHT22;48241;48.824;10.102;2022-08-05T11:20:39;33.80;29.90
62259;DHT22;48241;48.824;10.102;2022-08-05T11:23:25;33.60;29.20
62259;DHT22;48241;48.824;10.102;2022-08-05T11:26:04;33.70;29.60
62259;DHT22;48241;48.824;10.102;2022-08-05T11:33:52;33.80;29.60
62259;DHT22;48241;48.824;10.102;2022-08-05T11:39:04;34.20;29.10
62259;DHT22;48241;48.824;10.102;2022-08-05T11:41:30;34.40;28.40
62259;DHT22;48241;48.824;10.102;2022-08-05T11:43:58;34.60;28.10
62259;DHT22;48241;48.824;10.102;2022-08-05T11:46:26;34.60;27.80
62259;DHT22;48241;48.824;10.102;2022-08-05T11:48:53;34.40;27.90
62259;DHT22;48241;48.824;10.102;2022-08-05T11:51:19;34.30;28.10
62259;DHT22;48241;48.824;10.102;2022-08-05T11:53:46;34.40;28.20
62259;DHT22;48241;48.824;10.102;2022-08-05T11:56:12;34.10;28.00
62259;DHT22;48241;48.824;10.102;2022-08-05T11:58:40;34.10;28.60
62259;DHT22;48241;48.824;10.102;2022-08-05T12:01:14;34.10;28.40
62259;DHT22;48241;48.824;10.102;2022-08-05T12:03:42;34.10;28.10
62259;DHT22;48241;48.824;10.102;2022-08-05T12:06:08;34.20;28.30
62259;DHT22;48241;48.824;10.102;2022-08-05T12:11:11;34.20;28.50
62259;DHT22;48241;48.824;10.102;2022-08-05T12:13:55;34.00;28.30
62259;DHT22;48241;48.824;10.102;2022-08-05T12:16:22;33.90;28.00
62259;DHT22;48241;48.824;10.102;2022-08-05T12:18:48;34.20;27.40
62259;DHT22;48241;48.824;10.102;2022-08-05T12:21:17;34.10;27.90
62259;DHT22;48241;48.824;10.102;2022-08-05T12:24:00;34.00;28.50
62259;DHT22;48241;48.824;10.102;2022-08-05T12:26:35;34.20;27.40
62259;DHT22;48241;48.824;10.102;2022-08-05T12:29:03;34.10;28.50
62259;DHT22;48241;48.824;10.102;2022-08-05T12:31:33;34.20;28.30
62259;DHT22;48241;48.824;10.102;2022-08-05T12:34:05;34.30;29.30
62259;DHT22;48241;48.824;10.102;2022-08-05T12:36:31;34.30;28.00
62259;DHT22;48241;48.824;10.102;2022-08-05T12:38:57;34.40;28.10
62259;DHT22;48241;48.824;10.102;2022-08-05T12:41:29;34.40;27.80
62259;DHT22;48241;48.824;10.102;2022-08-05T12:43:57;34.50;27.40
62259;DHT22;48241;48.824;10.102;2022-08-05T12:46:30;34.50;27.00
62259;DHT22;48241;48.824;10.102;2022-08-05T14:17:50;34.60;28.70
62259;DHT22;48241;48.824;10.102;2022-08-05T15:48:11;33.60;31.40
62259;DHT22;48241;48.824;10.102;2022-08-05T16:08:48;34.40;31.70
62259;DHT22;48241;48.824;10.102;2022-08-05T18:50:04;26.90;45.90
62259;DHT22;48241;48.824;10.102;2022-08-05T18:52:48;26.80;46.40
62259;DHT22;48241;48.824;10.102;2022-08-05T18:55:15;26.70;47.00
62259;DHT22;48241;48.824;10.102;2022-08-05T18:57:41;26.70;47.30
62259;DHT22;48241;48.824;10.102;2022-08-05T19:00:08;26.60;47.80
62259;DHT22;48241;48.824;10.102;2022-08-05T19:02:34;26.60;48.10
62259;DHT22;48241;48.824;10.102;2022-08-05T19:05:00;26.50;48.20
62259;DHT22;48241;48.824;10.102;2022-08-05T19:07:27;26.60;48.50
62259;DHT22;48241;48.824;10.102;2022-08-05T19:09:53;26.60;48.60
62259;DHT22;48241;48.824;10.102;2022-08-05T19:12:19;26.60;48.60
62259;DHT22;48241;48.824;10.102;2022-08-05T19:14:45;26.60;48.60
62259;DHT22;48241;48.824;10.102;2022-08-05T19:17:11;26.50;49.10
62259;DHT22;48241;48.824;10.102;2022-08-05T19:19:38;26.60;49.10
62259;DHT22;48241;48.824;10.102;2022-08-05T19:22:04;26.60;49.20
62259;DHT22;48241;48.824;10.102;2022-08-05T19:24:29;26.50;49.20
62259;DHT22;48241;48.824;10.102;2022-08-05T19:26:55;26.50;49.40
62259;DHT22;48241;48.824;10.102;2022-08-05T19:29:22;26.60;49.60
62259;DHT22;48241;48.824;10.102;2022-08-05T19:31:48;26.40;50.00
62259;DHT22;48241;48.824;10.102;2022-08-05T19:34:13;26.30;50.10
62259;DHT22;48241;48.824;10.102;2022-08-05T19:36:39;26.50;50.00
62259;DHT22;48241;48.824;10.102;2022-08-05T19:39:04;26.40;50.10
62259;DHT22;48241;48.824;10.102;2022-08-05T19:41:30;26.40;50.50
62259;DHT22;48241;48.824;10.102;2022-08-05T19:43:56;26.40;50.60
62259;DHT22;48241;48.824;10.102;2022-08-05T19:46:25;26.20;51.00
62259;DHT22;48241;48.824;10.102;2022-08-05T19:48:50;26.30;51.00
62259;DHT22;48241;48.824;10.102;2022-08-05T19:51:16;26.40;51.00
62259;DHT22;48241;48.824;10.102;2022-08-05T19:53:41;26.20;51.20
62259;DHT22;48241;48.824;10.102;2022-08-05T19:56:07;26.30;51.70
62259;DHT22;48241;48.824;10.102;2022-08-05T19:58:32;26.20;51.90
62259;DHT22;48241;48.824;10.102;2022-08-05T20:00:58;26.10;52.40
62259;DHT22;48241;48.824;10.102;2022-08-05T20:03:24;26.00;52.80
62259;DHT22;48241;48.824;10.102;2022-08-05T20:05:50;25.90;53.40
62259;DHT22;48241;48.824;10.102;2022-08-05T20:08:18;25.60;54.30
62259;DHT22;48241;48.824;10.102;2022-08-05T20:10:44;25.90;54.10
62259;DHT22;48241;48.824;10.102;2022-08-05T20:13:10;25.90;54.00
62259;DHT22;48241;48.824;10.102;2022-08-05T20:15:36;25.60;54.60
62259;DHT22;48241;48.824;10.102;2022-08-05T20:18:03;25.80;54.60
62259;DHT22;48241;48.824;10.102;2022-08-05T20:20:29;25.70;54.90
62259;DHT22;48241;48.824;10.102;2022-08-05T20:22:54;25.70;55.30
62259;DHT22;48241;48.824;10.102;2022-08-05T20:25:20;25.70;55.20
62259;DHT22;48241;48.824;10.102;2022-08-05T20:27:45;25.70;55.40
62259;DHT22;48241;48.824;10.102;2022-08-05T20:30:11;25.40;56.20
62259;DHT22;48241;48.824;10.102;2022-08-05T20:32:37;25.40;56.20
62259;DHT22;48241;48.824;10.102;2022-08-05T20:35:03;25.40;56.20
62259;DHT22;48241;48.824;10.102;2022-08-05T20:37:29;25.40;56.20
62259;DHT22;48241;48.824;10.102;2022-08-05T20:39:54;25.40;56.20
62259;DHT22;48241;48.824;10.102;2022-08-05T20:42:20;25.30;56.00
62259;DHT22;48241;48.824;10.102;2022-08-05T20:44:45;25.10;56.60
62259;DHT22;48241;48.824;10.102;2022-08-05T20:47:11;25.10;56.70
62259;DHT22;48241;48.824;10.102;2022-08-05T20:49:37;24.90;57.10
62259;DHT22;48241;48.824;10.102;2022-08-05T20:52:02;24.90;57.30
62259;DHT22;48241;48.824;10.102;2022-08-05T20:54:28;24.90;57.30
62259;DHT22;48241;48.824;10.102;2022-08-05T20:56:54;24.90;57.30
62259;DHT22;48241;48.824;10.102;2022-08-05T20:59:20;25.10;56.70
62259;DHT22;48241;48.824;10.102;2022-08-05T21:01:46;25.00;57.00
62259;DHT22;48241;48.824;10.102;2022-08-05T21:04:11;25.10;56.50
62259;DHT22;48241;48.824;10.102;2022-08-05T21:06:38;25.10;56.70
62259;DHT22;48241;48.824;10.102;2022-08-05T21:09:04;24.80;57.50
62259;DHT22;48241;48.824;10.102;2022-08-05T21:11:30;24.70;57.90
62259;DHT22;48241;48.824;10.102;2022-08-05T21:13:56;24.60;58.40
62259;DHT22;48241;48.824;10.102;2022-08-05T21:16:25;24.60;58.60
62259;DHT22;48241;48.824;10.102;2022-08-05T21:18:51;24.70;58.50
62259;DHT22;48241;48.824;10.102;2022-08-05T21:21:17;24.70;58.50
62259;DHT22;48241;48.824;10.102;2022-08-05T21:23:42;24.60;58.90
62259;DHT22;48241;48.824;10.102;2022-08-05T21:26:10;24.40;59.60
62259;DHT22;48241;48.824;10.102;2022-08-05T21:28:35;24.40;59.90
62259;DHT22;48241;48.824;10.102;2022-08-05T21:31:01;24.40;59.90
62259;DHT22;48241;48.824;10.102;2022-08-05T21:33:26;24.10;60.60
62259;DHT22;48241;48.824;10.102;2022-08-05T21:35:52;24.20;60.60
62259;DHT22;48241;48.824;10.102;2022-08-05T21:38:17;24.20;60.50
62259;DHT22;48241;48.824;10.102;2022-08-05T21:40:43;24.10;60.80
62259;DHT22;48241;48.824;10.102;2022-08-05T21:43:09;24.00;59.90
62259;DHT22;48241;48.824;10.102;2022-08-05T21:45:34;23.80;59.40